Time;durP1;ratioP1;P1;durP2;ratioP2;P2;SDS_P1;SDS_P2;PMS_P1;PMS_P2;Temp;Humidity;BMP_temperature;BMP_pressure;BME280_temperature;BME280_humidity;BME280_pressure;Samples;Min_cycle;Max_cycle;Signal;HPM_P1;HPM_P2
2022/09/28 00:01:36;;;;;;;8.50;5.95;;;;;;;7.10;99.46;99499.56;5026316;28;20036;-82
2022/09/28 00:04:01;;;;;;;10.32;6.90;;;;;;;7.04;98.85;99501.88;5026135;28;20032;-82
2022/09/28 00:06:29;;;;;;;8.75;5.57;;;;;;;7.06;98.65;99497.41;5026376;28;20047;-83
2022/09/28 00:08:55;;;;;;;9.40;8.25;;;;;;;6.93;99.12;99490.72;5007424;28;20055;-82
2022/09/28 00:11:22;;;;;;;9.98;6.38;;;;;;;7.00;99.80;99490.22;5023482;28;20174;-81
2022/09/28 00:13:51;;;;;;;9.05;6.43;;;;;;;7.06;99.91;99502.56;5003898;28;20018;-82
2022/09/28 00:16:18;;;;;;;11.43;7.50;;;;;;;6.89;99.78;99481.66;5008530;28;20030;-82
2022/09/28 00:18:45;;;;;;;11.73;8.27;;;;;;;6.95;100.00;99487.22;5008141;28;20026;-84
2022/09/28 00:21:16;;;;;;;14.07;8.02;;;;;;;6.88;100.00;99474.03;5008318;28;20438;-82
2022/09/28 00:26:27;;;;;;;8.85;6.47;;;;;;;7.01;100.00;99484.09;5025010;28;20544;-82
2022/09/28 00:28:54;;;;;;;10.60;7.43;;;;;;;6.97;99.93;99480.16;5024086;28;20394;-82
2022/09/28 00:31:21;;;;;;;9.52;5.43;;;;;;;6.97;100.00;99467.28;5022654;28;20036;-84
2022/09/28 00:33:50;;;;;;;10.43;7.25;;;;;;;7.09;99.76;99500.50;5025110;28;20029;-82
2022/09/28 00:36:16;;;;;;;9.02;5.75;;;;;;;7.02;99.84;99480.56;5008438;28;20028;-82
2022/09/28 00:38:41;;;;;;;9.85;7.60;;;;;;;7.07;100.00;99502.44;5025745;28;20021;-82
2022/09/28 00:41:10;;;;;;;9.38;7.03;;;;;;;7.07;100.00;99514.50;5022960;28;20482;-82
2022/09/28 00:43:35;;;;;;;9.65;7.28;;;;;;;7.03;100.00;99498.47;5024147;28;20365;-82
2022/09/28 00:46:05;;;;;;;12.68;6.78;;;;;;;7.11;99.93;99505.53;5025611;28;20100;-82
2022/09/28 00:48:35;;;;;;;9.95;5.78;;;;;;;7.09;100.00;99497.13;5023196;28;20049;-82
2022/09/28 00:51:07;;;;;;;13.27;6.40;;;;;;;6.90;100.00;99465.25;5025985;28;20033;-82
2022/09/28 00:53:36;;;;;;;9.65;5.60;;;;;;;7.18;100.00;99506.63;5026023;28;20033;-82
2022/09/28 00:56:06;;;;;;;;;;;;;;;7.24;99.23;99500.13;5028476;28;20496;-83
2022/09/28 00:58:45;;;;;;;10.73;7.20;;;;;;;7.19;100.00;99492.78;5029910;28;19917;-83
2022/09/28 01:01:11;;;;;;;11.52;6.25;;;;;;;7.21;99.41;99490.88;5029265;28;20026;-81
2022/09/28 01:03:40;;;;;;;14.98;10.68;;;;;;;7.07;100.00;99489.53;5023369;28;20465;-82
2022/09/28 01:06:07;;;;;;;11.30;7.47;;;;;;;7.04;99.52;99468.34;5026633;28;20064;-82
2022/09/28 01:08:34;;;;;;;13.70;8.00;;;;;;;7.13;99.81;99483.03;5029595;28;20282;-82
2022/09/28 01:10:59;;;;;;;14.43;8.48;;;;;;;7.07;100.00;99470.69;5026046;28;20034;-82
2022/09/28 01:13:26;;;;;;;12.40;8.85;;;;;;;6.98;100.00;99458.59;5023684;28;20052;-82
2022/09/28 01:15:57;;;;;;;10.90;9.70;;;;;;;7.14;100.00;99479.50;5029514;28;20021;-82
2022/09/28 01:18:46;;;;;;;11.73;9.57;;;;;;;7.05;100.00;99470.78;5029394;28;20036;-82
2022/09/28 01:21:15;;;;;;;12.27;8.07;;;;;;;7.14;100.00;99485.47;5021279;28;20029;-82
2022/09/28 01:23:58;;;;;;;12.30;7.65;;;;;;;7.09;100.00;99477.31;5011643;28;20104;-82
2022/09/28 01:27:17;;;;;;;15.30;8.60;;;;;;;7.14;100.00;99489.81;5027398;28;20041;-82
2022/09/28 01:29:50;;;;;;;11.20;8.68;;;;;;;7.12;100.00;99486.56;4929035;29;20042;-81
2022/09/28 01:32:37;;;;;;;11.52;6.63;;;;;;;7.16;99.42;99482.72;4927550;29;20090;-82
2022/09/28 01:35:25;;;;;;;11.00;6.18;;;;;;;7.16;99.89;99477.56;4924503;29;20118;-84
2022/09/28 01:37:58;;;;;;;10.57;6.78;;;;;;;7.01;99.70;99471.22;4928877;29;20043;-82
2022/09/28 01:40:26;;;;;;;9.10;7.35;;;;;;;7.07;99.26;99483.56;4926097;29;20024;-82
2022/09/28 01:43:03;;;;;;;11.35;8.25;;;;;;;6.97;99.33;99472.44;4924421;29;20043;-82
2022/09/28 01:45:35;;;;;;;11.10;8.02;;;;;;;7.03;99.08;99488.16;4925272;29;20411;-82
2022/09/28 01:48:04;;;;;;;11.27;8.23;;;;;;;7.06;99.98;99489.69;4928235;29;20036;-82
2022/09/28 01:50:36;;;;;;;10.95;9.00;;;;;;;6.95;99.31;99471.75;4922236;29;20096;-83
2022/09/28 01:53:10;;;;;;;12.05;9.40;;;;;;;7.01;99.20;99490.06;4926190;29;20363;-82
2022/09/28 01:55:42;;;;;;;11.60;8.35;;;;;;;6.97;99.51;99473.25;4928834;29;20031;-82
2022/09/28 01:58:17;;;;;;;11.65;8.65;;;;;;;6.85;99.63;99464.81;4929422;29;20179;-82
2022/09/28 02:00:48;;;;;;;13.05;9.90;;;;;;;7.01;99.37;99489.25;4928285;29;20035;-81
2022/09/28 02:03:26;;;;;;;15.70;10.07;;;;;;;6.97;99.91;99472.44;4949134;28;20052;-81
2022/09/28 02:05:59;;;;;;;13.63;10.23;;;;;;;7.00;99.55;99479.91;5024215;28;20100;-82
2022/09/28 02:08:36;;;;;;;16.38;9.43;;;;;;;6.96;99.89;99468.22;5028602;28;20026;-82
2022/09/28 02:11:28;;;;;;;14.40;9.40;;;;;;;7.03;99.47;99482.19;5025070;28;20035;-82
2022/09/28 02:13:57;;;;;;;10.88;8.98;;;;;;;6.95;99.62;99471.75;5023232;28;20044;-82
2022/09/28 02:16:31;;;;;;;11.93;8.93;;;;;;;7.00;100.00;99473.00;5028406;28;20033;-81
2022/09/28 02:18:57;;;;;;;15.90;9.20;;;;;;;6.92;100.00;99471.06;5029159;28;20057;-81
2022/09/28 02:21:28;;;;;;;11.60;7.15;;;;;;;7.02;100.00;99478.00;5028011;28;20064;-82
2022/09/28 02:24:02;;;;;;;11.18;8.18;;;;;;;7.02;99.90;99480.56;5028365;28;20120;-82
2022/09/28 02:26:36;;;;;;;13.05;8.27;;;;;;;7.00;100.00;99485.06;5027873;28;20121;-81
2022/09/28 02:29:03;;;;;;;13.75;9.57;;;;;;;6.95;99.81;99484.66;5027365;28;20025;-83
2022/09/28 02:31:29;;;;;;;12.50;8.52;;;;;;;6.94;100.00;99473.53;5022984;28;20536;-82
2022/09/28 02:33:56;;;;;;;11.23;8.30;;;;;;;6.88;100.00;99467.16;5027870;28;20017;-82
2022/09/28 02:36:23;;;;;;;11.68;9.02;;;;;;;6.84;100.00;99458.06;4998720;28;20064;-82
2022/09/28 02:38:48;;;;;;;11.77;8.77;;;;;;;7.03;100.00;99477.03;5027808;28;20037;-83
2022/09/28 02:41:20;;;;;;;12.75;9.65;;;;;;;7.02;100.00;99485.72;5008572;28;20501;-82
2022/09/28 02:44:01;;;;;;;10.75;8.23;;;;;;;6.98;100.00;99468.91;5027505;28;20136;-82
2022/09/28 02:47:09;;;;;;;11.05;8.65;;;;;;;7.07;100.00;99478.41;5017393;28;20030;-82
2022/09/28 02:49:49;;;;;;;9.38;5.63;;;;;;;6.95;100.00;99454.53;5010789;28;20060;-81
2022/09/28 02:52:36;;;;;;;9.63;6.35;;;;;;;7.12;100.00;99481.41;5004492;28;20040;-82
2022/09/28 02:55:26;;;;;;;10.27;8.90;;;;;;;7.11;100.00;99475.44;5027614;28;20041;-82
2022/09/28 02:58:06;;;;;;;10.57;7.30;;;;;;;7.13;100.00;99477.88;5022926;28;20029;-81
2022/09/28 03:00:48;;;;;;;15.38;7.20;;;;;;;7.16;100.00;99472.41;5016872;28;20034;-82
2022/09/28 03:03:23;;;;;;;11.52;6.82;;;;;;;7.17;100.00;99476.66;4997504;28;20071;-82
2022/09/28 03:06:06;;;;;;;9.80;7.15;;;;;;;7.16;100.00;99475.00;5027619;28;20064;-83
2022/09/28 03:08:37;;;;;;;8.52;5.07;;;;;;;7.06;100.00;99453.59;5023893;28;20042;-82
2022/09/28 03:11:09;;;;;;;11.13;5.70;;;;;;;7.23;100.00;99473.53;5016569;28;20033;-82
2022/09/28 03:13:34;;;;;;;10.98;5.47;;;;;;;7.23;100.00;99475.28;5026946;28;20040;-82
2022/09/28 03:16:19;;;;;;;7.88;5.38;;;;;;;7.11;100.00;99448.81;5013915;28;20038;-82
2022/09/28 03:18:45;;;;;;;8.20;5.75;;;;;;;7.14;100.00;99456.28;5022754;28;20565;-82
2022/09/28 03:21:11;;;;;;;7.15;5.07;;;;;;;7.27;100.00;99485.16;5004352;28;20033;-81
2022/09/28 03:23:37;;;;;;;10.70;5.07;;;;;;;7.15;100.00;99455.31;5026876;28;20112;-81
2022/09/28 03:26:02;;;;;;;10.95;5.20;;;;;;;7.17;100.00;99463.75;5025507;28;20463;-82
2022/09/28 03:28:28;;;;;;;9.48;3.38;;;;;;;7.31;100.00;99471.06;5026360;28;20033;-82
2022/09/28 03:30:54;;;;;;;6.45;4.28;;;;;;;7.32;100.00;99482.19;5027023;28;20025;-82
2022/09/28 03:33:19;;;;;;;6.78;3.80;;;;;;;7.32;100.00;99483.00;5026837;28;20029;-82
2022/09/28 03:35:49;;;;;;;5.72;3.25;;;;;;;7.34;100.00;99481.13;5027263;28;20056;-82
2022/09/28 03:38:15;;;;;;;7.15;4.60;;;;;;;7.19;100.00;99467.81;5005960;28;20029;-82
2022/09/28 03:40:41;;;;;;;7.57;4.38;;;;;;;7.26;100.00;99485.31;5023191;28;20088;-82
2022/09/28 03:43:07;;;;;;;8.63;4.10;;;;;;;7.16;100.00;99468.06;5021929;28;20033;-82
2022/09/28 03:45:33;;;;;;;5.88;3.53;;;;;;;7.17;100.00;99468.91;5024812;28;20025;-82
2022/09/28 03:47:59;;;;;;;6.53;4.07;;;;;;;7.27;100.00;99485.16;5019703;28;20092;-82
2022/09/28 03:50:24;;;;;;;7.40;3.38;;;;;;;7.20;100.00;99466.03;5007254;28;21026;-82
2022/09/28 03:52:50;;;;;;;7.72;3.67;;;;;;;7.30;100.00;99482.34;5024600;28;20079;-82
2022/09/28 03:55:15;;;;;;;7.45;4.60;;;;;;;7.25;100.00;99481.94;5024851;28;20352;-84
2022/09/28 03:57:40;;;;;;;5.35;3.47;;;;;;;7.14;100.00;99462.25;5026117;28;20108;-82
2022/09/28 04:00:06;;;;;;;7.47;3.42;;;;;;;7.30;100.00;99479.75;5006511;28;20030;-82
2022/09/28 04:02:33;;;;;;;7.05;3.97;;;;;;;7.26;100.00;99478.38;5021553;28;20116;-82
2022/09/28 04:04:59;;;;;;;5.57;3.60;;;;;;;7.28;100.00;99476.47;5023826;28;20025;-82
2022/09/28 04:07:24;;;;;;;8.40;3.85;;;;;;;7.29;100.00;99482.47;5024867;28;20471;-82
2022/09/28 04:09:49;;;;;;;6.57;3.75;;;;;;;7.13;100.00;99458.06;5025024;28;20434;-82
2022/09/28 04:12:15;;;;;;;4.93;2.80;;;;;;;7.31;100.00;99476.22;5005367;28;20114;-82
2022/09/28 04:14:40;;;;;;;7.18;3.72;;;;;;;7.28;100.00;99481.63;5024455;28;20475;-82
2022/09/28 04:17:06;;;;;;;7.85;3.30;;;;;;;7.20;99.93;99463.47;5025145;28;20025;-82
2022/09/28 04:19:31;;;;;;;4.40;3.40;;;;;;;7.15;99.76;99470.78;5025757;28;20466;-82
2022/09/28 04:21:57;;;;;;;4.07;2.58;;;;;;;7.17;100.00;99463.75;5025733;28;20071;-82
2022/09/28 04:24:22;;;;;;;5.38;3.10;;;;;;;7.25;99.18;99481.94;5026096;28;20495;-82
2022/09/28 04:26:48;;;;;;;5.28;3.20;;;;;;;7.06;99.85;99456.97;5026049;28;20029;-82
2022/09/28 04:29:17;;;;;;;6.32;2.80;;;;;;;7.07;99.76;99457.78;5028415;28;20069;-82
2022/09/28 04:31:46;;;;;;;6.75;2.40;;;;;;;7.17;99.11;99474.06;5029737;28;20017;-83
2022/09/28 04:34:15;;;;;;;5.90;1.65;;;;;;;7.19;99.49;99477.31;5027273;28;20467;-82
2022/09/28 04:36:40;;;;;;;;;;;;;;;7.22;98.91;99482.19;5025386;28;20033;-82
2022/09/28 04:39:06;;;;;;;2.95;1.40;;;;;;;7.16;98.93;99487.88;5027720;28;19959;-83
2022/09/28 04:41:31;;;;;;;3.05;1.30;;;;;;;7.07;98.44;99478.41;5028598;28;20049;-83
2022/09/28 04:43:57;;;;;;;2.80;1.17;;;;;;;7.05;98.97;99485.44;5010323;28;20030;-83
2022/09/28 04:46:22;;;;;;;4.32;1.23;;;;;;;7.05;98.59;99495.75;5013767;28;20025;-83
2022/09/28 04:48:47;;;;;;;4.82;1.10;;;;;;;6.85;98.94;99457.09;5022822;28;20033;-82
2022/09/28 04:51:13;;;;;;;3.20;1.00;;;;;;;6.88;99.57;99469.72;5023130;28;20068;-83
2022/09/28 04:53:38;;;;;;;3.30;1.58;;;;;;;6.98;99.20;99495.50;5012309;28;20022;-83
2022/09/28 04:56:06;;;;;;;2.30;1.25;;;;;;;6.93;99.20;99498.47;5030484;28;20057;-82
2022/09/28 04:58:34;;;;;;;2.67;1.40;;;;;;;6.83;98.82;99477.03;5031265;28;20080;-84
2022/09/28 05:01:06;;;;;;;2.58;1.30;;;;;;;6.93;98.28;99502.81;5017134;28;20290;-83
2022/09/28 05:03:32;;;;;;;3.92;1.58;;;;;;;6.81;98.27;99484.06;5030344;28;20029;-82
2022/09/28 05:05:58;;;;;;;4.03;1.50;;;;;;;6.83;99.56;99502.00;5029830;28;20087;-82
2022/09/28 05:08:23;;;;;;;1.85;1.10;;;;;;;6.87;99.38;99511.88;5028673;28;20033;-82
2022/09/28 05:10:56;;;;;;;1.88;1.23;;;;;;;6.69;99.03;99464.53;5010056;28;20656;-83
2022/09/28 05:13:21;;;;;;;2.10;1.10;;;;;;;6.90;99.13;99493.59;5029906;28;20079;-82
2022/09/28 05:15:52;;;;;;;2.55;1.38;;;;;;;6.75;100.00;99469.16;5029781;28;20029;-82
2022/09/28 05:18:17;;;;;;;4.45;1.38;;;;;;;6.81;99.56;99478.91;5007802;28;20029;-83
2022/09/28 05:20:42;;;;;;;2.80;1.23;;;;;;;6.86;99.88;99487.06;5027556;28;20508;-82
2022/09/28 05:23:10;;;;;;;2.92;1.25;;;;;;;6.86;99.89;99496.56;5027466;28;20029;-82
2022/09/28 05:25:35;;;;;;;3.08;1.00;;;;;;;6.75;100.00;99473.50;5010136;28;20466;-82
2022/09/28 05:28:02;;;;;;;1.55;0.93;;;;;;;6.77;99.38;99471.63;5028525;28;20053;-82
2022/09/28 05:30:27;;;;;;;3.15;1.08;;;;;;;6.80;100.00;99487.59;5028121;28;20025;-82
2022/09/28 05:32:53;;;;;;;2.25;0.90;;;;;;;6.78;99.65;99484.34;5027800;28;20423;-82
2022/09/28 05:35:18;;;;;;;3.55;1.05;;;;;;;6.78;99.80;99489.50;5025918;28;20422;-83
2022/09/28 05:37:44;;;;;;;2.28;1.00;;;;;;;6.84;99.33;99499.28;5021670;28;20132;-83
2022/09/28 05:40:10;;;;;;;2.85;1.20;;;;;;;6.68;99.51;99488.69;5025886;28;20026;-82
2022/09/28 05:42:35;;;;;;;2.95;1.08;;;;;;;6.79;99.53;99491.13;5028398;28;20115;-82
2022/09/28 05:45:02;;;;;;;5.28;1.10;;;;;;;6.86;99.61;99502.53;5054686;23;20099;-75
2022/09/28 05:47:28;;;;;;;2.78;1.00;;;;;;;6.88;99.46;99508.38;5021630;28;20025;-78
2022/09/28 05:49:54;;;;;;;2.10;1.00;;;;;;;6.89;99.22;99507.44;5038782;28;20103;-77
2022/09/28 05:52:19;;;;;;;5.38;1.40;;;;;;;6.88;99.20;99510.97;5040801;28;20025;-75
2022/09/28 05:54:45;;;;;;;3.70;1.02;;;;;;;6.86;99.54;99518.00;5032057;28;20087;-75
2022/09/28 05:57:11;;;;;;;2.97;1.30;;;;;;;6.87;100.00;99514.47;5040430;28;20036;-78
2022/09/28 05:59:37;;;;;;;5.95;1.52;;;;;;;6.88;100.00;99505.81;5049127;28;20029;-74
2022/09/28 06:02:03;;;;;;;3.90;1.60;;;;;;;6.96;100.00;99517.19;5046112;28;20486;-75
2022/09/28 06:04:28;;;;;;;5.55;1.48;;;;;;;6.93;100.00;99511.34;5046773;28;20062;-75
2022/09/28 06:06:54;;;;;;;6.57;2.05;;;;;;;6.96;100.00;99522.34;5057359;28;20036;-75
2022/09/28 06:09:22;;;;;;;6.75;1.95;;;;;;;6.96;100.00;99512.88;5060894;28;20032;-75
2022/09/28 06:11:47;;;;;;;3.15;1.80;;;;;;;7.00;100.00;99521.97;5061901;28;20094;-75
2022/09/28 06:14:13;;;;;;;4.60;1.98;;;;;;;6.99;100.00;99522.88;5038543;28;20025;-75
2022/09/28 06:16:39;;;;;;;7.90;2.35;;;;;;;7.02;100.00;99519.25;5033991;28;20028;-76
2022/09/28 06:19:04;;;;;;;3.15;1.30;;;;;;;6.99;100.00;99511.75;5051666;28;20047;-76
2022/09/28 06:21:29;;;;;;;4.25;1.83;;;;;;;7.03;100.00;99508.78;5027786;28;20033;-75
2022/09/28 06:23:55;;;;;;;3.63;1.60;;;;;;;7.07;100.00;99524.81;5031256;28;20489;-75
2022/09/28 06:26:20;;;;;;;4.85;1.75;;;;;;;7.09;100.00;99523.72;5049963;28;20478;-75
2022/09/28 06:28:46;;;;;;;6.18;1.60;;;;;;;7.04;100.00;99522.50;5051730;28;20352;-75
2022/09/28 06:31:11;;;;;;;2.78;1.50;;;;;;;7.11;100.00;99521.00;5052948;28;20564;-74
2022/09/28 06:33:37;;;;;;;3.00;1.83;;;;;;;7.14;100.00;99531.88;5042141;28;20029;-75
2022/09/28 06:36:03;;;;;;;9.02;1.60;;;;;;;7.16;100.00;99518.84;5053271;28;20493;-75
2022/09/28 06:38:29;;;;;;;4.07;1.60;;;;;;;7.18;100.00;99535.00;5026978;28;20029;-75
2022/09/28 06:40:56;;;;;;;3.00;1.25;;;;;;;7.17;100.00;99525.63;5042548;28;20478;-75
2022/09/28 06:43:21;;;;;;;6.15;1.80;;;;;;;7.30;100.00;99546.00;5036231;28;20112;-77
2022/09/28 06:45:51;;;;;;;2.33;1.15;;;;;;;7.31;100.00;99540.69;5052600;28;20142;-75
2022/09/28 06:48:16;;;;;;;3.78;1.77;;;;;;;7.34;100.00;99540.44;5053481;28;20070;-75
2022/09/28 06:50:42;;;;;;;5.85;1.88;;;;;;;7.33;100.00;99541.38;5034778;28;20021;-75
2022/09/28 06:53:10;;;;;;;6.05;1.73;;;;;;;7.38;100.00;99541.78;5030015;28;20024;-74
2022/09/28 06:55:41;;;;;;;5.95;1.45;;;;;;;7.49;100.00;99542.59;5060929;28;20024;-75
2022/09/28 06:58:10;;;;;;;5.43;2.03;;;;;;;7.53;100.00;99551.69;5038206;28;20063;-75
2022/09/28 07:00:37;;;;;;;5.60;2.80;;;;;;;7.50;100.00;99541.63;5049752;28;20127;-75
2022/09/28 07:03:09;;;;;;;6.75;2.45;;;;;;;7.57;100.00;99547.88;5055541;28;20115;-76
2022/09/28 07:05:35;;;;;;;5.45;2.33;;;;;;;7.60;100.00;99552.78;5065431;28;20078;-75
2022/09/28 07:08:04;;;;;;;5.38;2.08;;;;;;;7.63;100.00;99552.50;5046692;28;20025;-75
2022/09/28 07:10:30;;;;;;;;;;;;;;;7.70;100.00;99561.31;5046033;28;20037;-75
2022/09/28 07:12:56;;;;;;;3.95;2.17;;;;;;;7.69;100.00;99562.28;5050495;28;19917;-75
2022/09/28 07:15:23;;;;;;;6.68;2.40;;;;;;;7.64;100.00;99543.81;5053164;28;20055;-75
2022/09/28 07:17:55;;;;;;;5.45;2.33;;;;;;;7.72;100.00;99562.81;5038149;28;20708;-75
2022/09/28 07:20:21;;;;;;;6.13;2.38;;;;;;;7.73;100.00;99563.63;5058449;28;20027;-75
2022/09/28 07:22:51;;;;;;;5.28;2.95;;;;;;;7.82;100.00;99577.47;5031532;28;20029;-75
2022/09/28 07:25:17;;;;;;;6.28;3.15;;;;;;;7.83;100.00;99573.94;5047908;28;20020;-75
2022/09/28 07:27:42;;;;;;;6.20;3.00;;;;;;;7.86;100.00;99569.31;5044459;28;20074;-75
2022/09/28 07:30:08;;;;;;;6.80;3.00;;;;;;;7.93;100.00;99570.38;5032900;28;20033;-75
2022/09/28 07:32:36;;;;;;;6.10;2.97;;;;;;;8.03;100.00;99575.53;5055991;28;20036;-75
2022/09/28 07:35:07;;;;;;;5.03;2.90;;;;;;;8.08;100.00;99575.09;5059069;28;20508;-75
2022/09/28 07:37:34;;;;;;;3.85;2.25;;;;;;;8.11;100.00;99573.06;5043575;28;20036;-75
2022/09/28 07:42:47;;;;;;;6.00;3.10;;;;;;;8.32;100.00;99585.78;5056056;28;20089;-75
2022/09/28 07:45:13;;;;;;;3.75;2.05;;;;;;;8.31;100.00;99581.56;5052930;28;20052;-75
2022/09/28 07:47:38;;;;;;;4.20;2.63;;;;;;;8.47;100.00;99599.88;5055810;28;20460;-76
2022/09/28 07:50:04;;;;;;;3.90;2.17;;;;;;;8.51;100.00;99590.91;5045874;28;20463;-75
2022/09/28 07:52:30;;;;;;;4.32;2.00;;;;;;;8.61;100.00;99595.25;5018637;28;20028;-75
2022/09/28 07:54:56;;;;;;;6.18;2.22;;;;;;;8.64;100.00;99594.94;5040182;28;20099;-75
2022/09/28 07:57:22;;;;;;;2.65;1.77;;;;;;;8.71;100.00;99588.22;5044781;28;20048;-77
2022/09/28 07:59:49;;;;;;;4.05;1.63;;;;;;;8.82;100.00;99598.38;5040873;28;20514;-75
2022/09/28 08:02:16;;;;;;;3.65;1.58;;;;;;;8.84;100.00;99593.91;5044048;28;20074;-79
2022/09/28 08:04:42;;;;;;;3.78;1.67;;;;;;;8.88;100.00;99597.81;5042626;28;20018;-80
2022/09/28 08:07:09;;;;;;;3.05;1.52;;;;;;;8.99;99.98;99609.72;5034771;28;20029;-80
2022/09/28 08:09:34;;;;;;;2.20;1.17;;;;;;;9.00;99.82;99601.84;5041070;28;20021;-79
2022/09/28 08:12:00;;;;;;;4.22;1.58;;;;;;;9.04;99.08;99608.34;5041815;28;20082;-80
2022/09/28 08:14:26;;;;;;;1.75;1.30;;;;;;;9.04;99.11;99605.75;5032445;28;20050;-79
2022/09/28 08:16:52;;;;;;;4.43;1.50;;;;;;;9.17;98.54;99617.50;5035646;28;20428;-80
2022/09/28 08:19:17;;;;;;;3.65;1.55;;;;;;;9.24;98.45;99616.00;5045873;28;20090;-79
2022/09/28 08:21:46;;;;;;;2.13;1.35;;;;;;;9.27;99.01;99613.09;5010194;28;20374;-79
2022/09/28 08:24:14;;;;;;;3.78;1.50;;;;;;;9.29;99.02;99595.69;5041858;28;20052;-78
2022/09/28 08:26:39;;;;;;;3.20;1.40;;;;;;;9.44;98.27;99614.88;5027567;28;20432;-79
2022/09/28 08:29:05;;;;;;;5.10;1.77;;;;;;;9.54;98.40;99615.63;5029826;28;20029;-79
2022/09/28 08:31:31;;;;;;;2.95;1.15;;;;;;;9.56;98.05;99608.53;5044264;28;20032;-78
2022/09/28 08:33:56;;;;;;;5.30;1.55;;;;;;;9.55;97.42;99606.91;5035326;28;20025;-78
2022/09/28 08:36:22;;;;;;;3.83;1.10;;;;;;;9.69;97.94;99617.69;5039043;28;20065;-79
2022/09/28 08:38:48;;;;;;;3.35;1.40;;;;;;;9.77;96.47;99620.34;5011412;28;20120;-79
2022/09/28 08:41:55;;;;;;;4.60;1.20;;;;;;;9.92;96.65;99624.06;5033472;28;20029;-79
2022/09/28 08:44:23;;;;;;;3.45;1.20;;;;;;;9.94;97.10;99635.06;5003624;28;20053;-78
2022/09/28 08:48:42;;;;;;;3.22;1.10;;;;;;;10.01;96.33;99628.31;5022913;28;20052;-79
2022/09/28 08:50:04;;;;;;;2.15;1.13;;;;;;;10.17;97.66;99637.16;5029973;28;20033;-79
2022/09/28 08:52:37;;;;;;;3.80;1.45;;;;;;;10.17;95.63;99632.00;5046181;28;20053;-79
2022/09/28 08:55:19;;;;;;;5.25;1.30;;;;;;;10.17;95.48;99635.41;5036097;28;20025;-79
2022/09/28 08:57:47;;;;;;;4.70;1.58;;;;;;;10.16;95.63;99630.38;5035314;28;20079;-78
2022/09/28 09:00:28;;;;;;;5.10;1.13;;;;;;;10.08;93.88;99634.50;5039875;28;20374;-79
2022/09/28 09:02:55;;;;;;;3.45;0.88;;;;;;;10.02;92.92;99629.13;5045453;28;20071;-79
2022/09/28 09:05:37;;;;;;;6.25;1.25;;;;;;;10.09;94.09;99640.50;5038058;28;20120;-79
2022/09/28 09:08:25;;;;;;;2.80;0.95;;;;;;;10.09;93.35;99641.34;5045828;28;20017;-78
2022/09/28 09:10:50;;;;;;;5.53;1.30;;;;;;;10.19;93.89;99640.41;5050340;28;20497;-79
2022/09/28 09:13:33;;;;;;;3.00;1.23;;;;;;;10.26;93.24;99646.63;5063394;28;20020;-79
2022/09/28 09:16:20;;;;;;;2.55;0.93;;;;;;;10.38;93.43;99650.63;5050838;28;20032;-78
2022/09/28 09:19:21;;;;;;;2.38;1.00;;;;;;;10.48;92.33;99646.13;5049239;28;20454;-79
2022/09/28 09:22:01;;;;;;;1.88;0.85;;;;;;;10.64;93.30;99648.81;5048389;28;20053;-79
2022/09/28 09:24:44;;;;;;;2.28;0.88;;;;;;;10.80;92.48;99655.88;5042100;28;20052;-78
2022/09/28 09:27:28;;;;;;;2.80;1.20;;;;;;;10.85;90.64;99660.59;5042105;28;20144;-79
2022/09/28 09:30:05;;;;;;;4.07;1.05;;;;;;;10.76;89.28;99664.13;5053874;28;20031;-78
2022/09/28 09:32:57;;;;;;;2.17;1.00;;;;;;;10.81;91.03;99667.88;5039027;28;20028;-79
2022/09/28 09:35:53;;;;;;;1.88;0.70;;;;;;;10.89;88.82;99659.31;5046016;28;20140;-78
2022/09/28 09:38:39;;;;;;;2.03;0.70;;;;;;;11.03;89.98;99671.69;5036153;28;20559;-78
2022/09/28 09:41:32;;;;;;;2.40;0.85;;;;;;;11.08;89.55;99674.63;5037635;28;20475;-78
2022/09/28 09:44:18;;;;;;;2.00;0.93;;;;;;;11.08;88.64;99674.63;5041206;28;20450;-79
2022/09/28 09:46:53;;;;;;;3.13;0.90;;;;;;;11.08;87.57;99679.03;5042548;28;20033;-79
2022/09/28 09:49:28;;;;;;;0.70;0.60;;;;;;;11.06;85.29;99673.97;5050014;28;20059;-79
2022/09/28 09:52:12;;;;;;;2.13;0.63;;;;;;;11.29;85.35;99681.19;5045016;28;20048;-78
2022/09/28 09:54:50;;;;;;;3.38;0.73;;;;;;;11.32;86.76;99671.31;5049078;28;20157;-78
2022/09/28 09:57:24;;;;;;;2.72;0.80;;;;;;;11.34;82.94;99681.53;5034137;28;20024;-79
2022/09/28 09:59:50;;;;;;;3.33;0.63;;;;;;;11.25;83.04;99679.91;5056843;28;20037;-79
2022/09/28 10:02:26;;;;;;;4.18;0.60;;;;;;;11.33;84.57;99691.09;5047121;28;20043;-79
2022/09/28 10:05:00;;;;;;;1.40;0.77;;;;;;;11.48;84.78;99673.13;5048424;28;20116;-78
2022/09/28 10:07:37;;;;;;;1.85;0.70;;;;;;;11.52;80.26;99684.81;5042589;28;20125;-79
2022/09/28 10:10:09;;;;;;;1.92;0.73;;;;;;;11.48;82.95;99680.13;5041670;28;20029;-79
2022/09/28 10:12:35;;;;;;;1.48;0.63;;;;;;;11.41;82.21;99677.31;5048171;28;20029;-78
2022/09/28 10:15:06;;;;;;;2.72;0.70;;;;;;;11.33;80.70;99682.50;5047528;28;20029;-78
2022/09/28 10:17:33;;;;;;;2.63;0.70;;;;;;;11.47;82.25;99678.47;5039190;28;20112;-78
2022/09/28 10:20:00;;;;;;;2.97;0.88;;;;;;;11.44;81.17;99679.63;5029435;28;20033;-79
2022/09/28 10:22:26;;;;;;;2.05;0.93;;;;;;;11.65;81.81;99677.38;5029506;28;20033;-78
2022/09/28 10:24:57;;;;;;;2.40;0.80;;;;;;;11.75;81.48;99673.81;5046432;28;20109;-78
2022/09/28 10:27:30;;;;;;;1.80;0.82;;;;;;;11.88;79.76;99674.19;5052134;28;20058;-79
2022/09/28 10:30:15;;;;;;;2.55;0.60;;;;;;;12.15;79.66;99673.84;5027397;28;20467;-78
2022/09/28 10:32:43;;;;;;;2.50;0.65;;;;;;;12.22;79.48;99674.84;5046062;28;20032;-78
2022/09/28 10:35:17;;;;;;;1.77;0.82;;;;;;;12.16;77.66;99680.69;5045274;28;20112;-79
2022/09/28 10:38:06;;;;;;;2.72;0.88;;;;;;;12.05;79.16;99673.22;5054615;28;20077;-78
2022/09/28 10:40:40;;;;;;;2.40;0.80;;;;;;;12.09;79.47;99684.91;5043514;28;20020;-78
2022/09/28 10:43:14;;;;;;;1.35;0.70;;;;;;;12.08;81.27;99683.28;5046067;28;20061;-78
2022/09/28 10:45:39;;;;;;;2.17;0.77;;;;;;;11.95;79.28;99683.78;5041853;28;20050;-78
2022/09/28 10:48:13;;;;;;;1.48;0.80;;;;;;;12.12;79.04;99692.38;5051594;28;20076;-78
2022/09/28 10:50:40;;;;;;;2.50;0.80;;;;;;;12.35;80.58;99689.13;5040245;28;20474;-78
2022/09/28 10:53:11;;;;;;;2.15;0.88;;;;;;;12.63;80.57;99677.38;5056964;28;20053;-78
2022/09/28 10:55:37;;;;;;;3.28;0.85;;;;;;;12.71;82.19;99668.72;5043680;28;20052;-78
2022/09/28 10:58:32;;;;;;;2.95;0.88;;;;;;;13.02;80.39;99679.22;5039161;28;20083;-78
2022/09/28 11:01:01;;;;;;;5.30;0.82;;;;;;;13.01;77.92;99680.16;5043984;28;20020;-78
2022/09/28 11:03:28;;;;;;;2.65;0.75;;;;;;;12.77;77.08;99674.06;5064122;28;20020;-78
2022/09/28 11:05:58;;;;;;;3.17;0.95;;;;;;;12.68;77.50;99680.28;5067826;28;20125;-78
2022/09/28 11:08:32;;;;;;;2.28;0.70;;;;;;;12.58;76.79;99674.47;5053493;28;20032;-78
2022/09/28 11:11:10;;;;;;;2.40;0.60;;;;;;;12.47;76.36;99677.41;5034571;28;20390;-78
2022/09/28 11:13:43;;;;;;;2.22;0.70;;;;;;;12.65;78.49;99670.22;5040583;28;20058;-78
2022/09/28 11:16:19;;;;;;;2.75;0.60;;;;;;;12.87;78.76;99673.06;5032617;28;20041;-78
2022/09/28 11:18:45;;;;;;;2.25;0.60;;;;;;;13.07;76.66;99679.50;5040093;28;20417;-78
2022/09/28 11:21:22;;;;;;;2.17;0.60;;;;;;;13.13;74.86;99673.63;5025443;28;20037;-78
2022/09/28 11:24:14;;;;;;;2.15;0.70;;;;;;;13.25;75.89;99667.09;5034897;28;20036;-78
2022/09/28 11:26:48;;;;;;;1.58;0.50;;;;;;;13.32;74.97;99674.22;5036194;28;20051;-78
2022/09/28 11:29:37;;;;;;;2.38;0.70;;;;;;;13.36;77.66;99672.88;5060330;28;20028;-78
2022/09/28 11:32:04;;;;;;;2.15;0.70;;;;;;;13.04;74.81;99677.25;5036252;28;20313;-78
2022/09/28 11:34:36;;;;;;;0.65;0.50;;;;;;;12.94;73.08;99674.81;5056126;28;20036;-77
2022/09/28 11:37:20;;;;;;;2.58;0.70;;;;;;;13.16;75.76;99678.47;5049149;28;20035;-78
2022/09/28 11:39:58;;;;;;;1.30;0.60;;;;;;;12.97;73.66;99676.31;5038073;28;20025;-78
2022/09/28 11:42:43;;;;;;;1.67;0.60;;;;;;;12.96;75.92;99672.03;5034057;28;20037;-77
2022/09/28 11:45:24;;;;;;;2.83;0.55;;;;;;;13.20;75.93;99668.56;5044742;28;20059;-78
2022/09/28 11:48:01;;;;;;;0.77;0.43;;;;;;;13.25;72.61;99667.09;5059923;28;20032;-78
2022/09/28 11:50:49;;;;;;;1.02;0.68;;;;;;;13.26;73.65;99668.72;5026923;28;20160;-78
2022/09/28 11:53:21;;;;;;;2.20;0.50;;;;;;;13.26;74.04;99668.72;5042281;28;20474;-78
2022/09/28 11:55:55;;;;;;;1.80;0.57;;;;;;;13.05;72.04;99671.03;5039069;28;20097;-78
2022/09/28 11:58:32;;;;;;;1.17;0.57;;;;;;;12.87;73.88;99663.47;5061238;28;20028;-77